Navarre, Kansas
Current Conditions -  °F | °C
As of 7:53 PM on Tuesday 25 Nov 2014 (Local Time) from KSLN Reporting Station
Overcast Overcast  
Wind Chill: 38°   Ceiling: 11000
Heat Index: 45°   Visibility: 10mi
Dew Point: 26°   Wind: 16mph
Humidity: 48%   Direction: 170°S
Pressure: 29.94"   Gusts: 24mph
Location:  38.6527°N, 97.1508°W
Report Text: KSLN 260153Z 17014G21KT 10SM OVC110 07/M03 A2994 RMK AO2 SLP147 T00721033
Loading
Personal Weather Stations






























Interactive Weather Map New forecast layout! Learn more

10-Day Weather Forecast

Advertisements
Track Severe Weather on mobile